GMFO/OUD METAR and TAF weather

Enter ICAO airport designator
Station Type Date Time Source
GMFO METAR 2019/04/24 21:00 UTC NOAA

GMFO 242100Z AUTO 23004KT 200V260 9999 ////// 12/05 Q1016 NOSIG


Station Type Date Time Source
GMFO Decoded METAR 2019/04/24 21:00 UTC NOAA

Oujda, Morocco (GMFO) 34-47N 001-56W 470M
Apr 24, 2019 - 05:00 PM EDT / 2019.04.24 2100 UTC
Wind: from the SW (230 degrees) at 5 MPH (4 KT) (direction variable):0
Visibility: greater than 7 mile(s):0
Temperature: 53 F (12 C)
Dew Point: 41 F (5 C)
Relative Humidity: 62%
Pressure (altimeter): 30.00 in. Hg (1016 hPa)
ob: GMFO 242100Z AUTO 23004KT 200V260 9999 ////// 12/05 Q1016 NOSIG
cycle: 21

Station Type Date Time Source
GMFO TAF 2019/04/24 18:18 UTC NOAA

TAF GMFO 241700Z 2418/2524 31012KT 9999 FEW026
BECMG 2422/2502 VRB03KT
BECMG 2514/2518 36014KT CAVOK

Example: see airport list